createdAt,value
2024-03-09T00:00:27.008Z,23.45
2024-03-09T00:02:55.773Z,26.75
2024-03-09T00:05:25.942Z,29.05
2024-03-09T00:07:57.778Z,30.73
2024-03-09T00:10:26.049Z,26.60
2024-03-09T00:12:54.413Z,20.13
2024-03-09T00:15:24.659Z,23.17
2024-03-09T00:17:54.590Z,22.48
2024-03-09T00:20:24.446Z,25.90
2024-03-09T00:22:56.990Z,28.00
2024-03-09T00:25:24.525Z,24.73
2024-03-09T00:27:53.683Z,28.42
2024-03-09T00:30:21.418Z,23.25
2024-03-09T00:32:50.446Z,29.50
2024-03-09T00:35:20.140Z,22.88
2024-03-09T00:37:47.572Z,22.95
2024-03-09T00:40:15.427Z,24.02
2024-03-09T00:42:42.771Z,22.75
2024-03-09T00:45:11.136Z,22.83
2024-03-09T00:47:38.964Z,22.90
2024-03-09T00:50:10.898Z,22.45
2024-03-09T00:52:39.629Z,22.42
2024-03-09T00:55:11.618Z,22.38
2024-03-09T00:57:39.419Z,21.48
2024-03-09T01:00:12.518Z,25.83
2024-03-09T01:02:42.268Z,24.58
2024-03-09T01:05:10.372Z,24.23
2024-03-09T01:07:39.191Z,33.33
2024-03-09T01:10:10.301Z,23.83
2024-03-09T01:12:37.711Z,25.92
2024-03-09T01:15:07.943Z,20.60
2024-03-09T01:17:37.541Z,26.55
2024-03-09T01:20:07.695Z,27.25
2024-03-09T01:22:35.221Z,26.10
2024-03-09T01:25:09.623Z,27.23
2024-03-09T01:27:38.461Z,29.73
2024-03-09T01:30:07.177Z,32.92
2024-03-09T01:32:34.575Z,26.27
2024-03-09T01:35:03.502Z,26.58
2024-03-09T01:37:30.966Z,22.15
2024-03-09T01:39:58.521Z,31.45
2024-03-09T01:42:28.223Z,24.65
2024-03-09T01:44:59.097Z,27.77
2024-03-09T01:47:27.585Z,29.38
2024-03-09T01:49:57.656Z,26.55
2024-03-09T01:52:34.333Z,27.88
2024-03-09T01:55:07.724Z,22.02
2024-03-09T01:57:35.038Z,33.08
2024-03-09T02:00:04.416Z,32.22
2024-03-09T02:02:32.049Z,28.55
2024-03-09T02:04:59.660Z,30.38
2024-03-09T02:07:26.973Z,30.00
2024-03-09T02:09:54.374Z,26.92
2024-03-09T02:12:24.365Z,27.05
2024-03-09T02:14:51.578Z,32.08
2024-03-09T02:17:20.034Z,26.75
2024-03-09T02:19:47.108Z,34.17
2024-03-09T02:22:17.428Z,37.83
2024-03-09T02:24:56.231Z,34.05
2024-03-09T02:27:27.098Z,36.60
2024-03-09T02:29:54.761Z,35.05
2024-03-09T02:32:25.318Z,47.22
2024-03-09T02:34:52.441Z,33.67
2024-03-09T02:37:21.000Z,31.58
2024-03-09T02:39:48.589Z,40.20
2024-03-09T02:42:17.158Z,31.98
2024-03-09T02:44:44.394Z,30.02
2024-03-09T02:47:11.874Z,33.58
2024-03-09T02:49:40.287Z,30.92
2024-03-09T02:52:08.664Z,39.88
2024-03-09T02:54:37.591Z,30.48
2024-03-09T02:57:07.719Z,32.30
2024-03-09T02:59:36.958Z,42.97
2024-03-09T03:02:15.839Z,37.50
2024-03-09T03:04:43.201Z,33.38
2024-03-09T03:07:10.488Z,33.97
2024-03-09T03:09:38.079Z,38.85
2024-03-09T03:12:09.219Z,39.35
2024-03-09T03:14:40.911Z,32.95
2024-03-09T03:17:08.665Z,34.20
2024-03-09T03:19:36.076Z,34.85
2024-03-09T03:22:03.263Z,36.17
2024-03-09T03:24:30.375Z,40.53
2024-03-09T03:26:58.930Z,41.08
2024-03-09T03:29:28.801Z,38.97
2024-03-09T03:31:58.247Z,38.03
2024-03-09T03:34:29.363Z,30.38
2024-03-09T03:36:57.069Z,44.70
2024-03-09T03:39:24.482Z,34.38
2024-03-09T03:41:53.639Z,31.00
2024-03-09T03:44:20.888Z,37.22
2024-03-09T03:46:48.489Z,33.75
2024-03-09T03:49:17.302Z,34.65
2024-03-09T03:51:44.562Z,42.97
2024-03-09T03:54:11.956Z,33.05
2024-03-09T03:56:39.298Z,30.58
2024-03-09T03:59:06.610Z,34.72
2024-03-09T04:01:33.859Z,44.17
2024-03-09T04:04:01.308Z,42.38
2024-03-09T04:06:29.890Z,42.72
2024-03-09T04:08:58.729Z,39.63
2024-03-09T04:11:33.436Z,35.25
2024-03-09T04:14:00.715Z,39.08
2024-03-09T04:16:28.071Z,32.83
2024-03-09T04:18:55.262Z,34.13
2024-03-09T04:21:22.597Z,45.55
2024-03-09T04:23:51.286Z,42.30
2024-03-09T04:26:18.514Z,46.72
2024-03-09T04:28:45.989Z,36.42
2024-03-09T04:31:13.344Z,39.55
2024-03-09T04:33:41.630Z,40.38
2024-03-09T04:36:09.479Z,45.65
2024-03-09T04:38:36.698Z,41.28
2024-03-09T04:41:05.482Z,34.90
2024-03-09T04:43:33.697Z,46.75
2024-03-09T04:46:01.547Z,46.92
2024-03-09T04:48:29.139Z,43.08
2024-03-09T04:50:56.501Z,45.38
2024-03-09T04:53:23.697Z,38.05
2024-03-09T04:55:53.121Z,41.58
2024-03-09T04:58:23.043Z,37.42
2024-03-09T05:00:50.245Z,45.20
2024-03-09T05:03:19.235Z,45.78
2024-03-09T05:05:46.445Z,35.38
2024-03-09T05:08:13.768Z,44.90
2024-03-09T05:10:41.411Z,56.58
2024-03-09T05:13:09.499Z,40.65
2024-03-09T05:15:38.857Z,41.20
2024-03-09T05:18:11.209Z,40.17
2024-03-09T05:20:39.428Z,39.20
2024-03-09T05:23:13.033Z,42.58
2024-03-09T05:25:43.303Z,42.13
2024-03-09T05:28:15.037Z,38.67
2024-03-09T05:30:45.318Z,49.58
2024-03-09T05:33:13.604Z,40.42
2024-03-09T05:35:41.599Z,42.13
2024-03-09T05:38:10.398Z,53.90
2024-03-09T05:40:38.538Z,43.95
2024-03-09T05:43:08.584Z,43.03
2024-03-09T05:45:37.053Z,40.22
2024-03-09T05:48:07.628Z,42.90
2024-03-09T05:50:37.343Z,44.78
2024-03-09T05:53:05.944Z,35.63
2024-03-09T05:55:33.497Z,40.00
2024-03-09T05:58:01.041Z,42.70
2024-03-09T06:00:30.870Z,37.78
2024-03-09T06:03:03.656Z,34.88
2024-03-09T06:05:33.309Z,38.28
2024-03-09T06:08:03.622Z,27.83
2024-03-09T06:10:31.787Z,34.42
2024-03-09T06:12:59.068Z,29.35
2024-03-09T06:15:27.139Z,34.08
2024-03-09T06:17:58.450Z,31.30
2024-03-09T06:20:28.274Z,41.58
2024-03-09T06:22:58.798Z,35.70
2024-03-09T06:25:31.376Z,40.88
2024-03-09T06:28:01.309Z,42.47
2024-03-09T06:30:31.590Z,33.25
2024-03-09T06:33:02.669Z,30.10
2024-03-09T06:35:31.562Z,33.65
2024-03-09T06:38:02.123Z,28.35
2024-03-09T06:40:32.538Z,35.95
2024-03-09T06:43:00.105Z,38.05
2024-03-09T06:45:30.427Z,31.95
2024-03-09T06:48:01.334Z,31.88
2024-03-09T06:50:29.782Z,33.17
2024-03-09T06:52:57.361Z,35.10
2024-03-09T06:55:30.419Z,27.88
2024-03-09T06:58:03.637Z,28.48
2024-03-09T07:00:33.781Z,31.45
2024-03-09T07:03:01.082Z,33.50
2024-03-09T07:05:39.044Z,29.48
2024-03-09T07:08:11.249Z,30.25
2024-03-09T07:10:40.373Z,36.58
2024-03-09T07:13:07.641Z,36.13
2024-03-09T07:15:34.880Z,35.95
2024-03-09T07:18:02.360Z,33.47
2024-03-09T07:20:30.325Z,31.83
2024-03-09T07:22:58.526Z,30.58
2024-03-09T07:25:28.999Z,30.15
2024-03-09T07:27:59.641Z,30.65
2024-03-09T07:30:27.668Z,33.80
2024-03-09T07:32:57.465Z,34.45
2024-03-09T07:35:29.797Z,28.85
2024-03-09T07:38:01.431Z,26.42
2024-03-09T07:40:34.110Z,32.00
2024-03-09T07:43:03.141Z,27.25
2024-03-09T07:45:31.680Z,31.77
2024-03-09T07:48:04.633Z,31.10
2024-03-09T07:50:34.219Z,27.58
2024-03-09T07:53:01.949Z,28.23
2024-03-09T07:55:30.374Z,31.63
2024-03-09T07:58:12.735Z,28.83
2024-03-09T08:00:47.162Z,32.58
2024-03-09T08:03:15.437Z,30.20
2024-03-09T08:05:43.401Z,30.52
2024-03-09T08:08:12.029Z,30.50
2024-03-09T08:10:49.048Z,26.33
2024-03-09T08:13:18.623Z,29.70
2024-03-09T08:15:47.795Z,37.90
2024-03-09T08:18:15.029Z,29.08
2024-03-09T08:20:43.011Z,33.95
2024-03-09T08:23:10.289Z,31.23
2024-03-09T08:25:37.923Z,32.72
2024-03-09T08:28:05.982Z,30.42
2024-03-09T08:30:33.308Z,30.80
2024-03-09T08:33:02.813Z,30.52
2024-03-09T08:35:33.272Z,25.85
2024-03-09T08:38:00.741Z,27.30
2024-03-09T08:40:28.199Z,27.85
2024-03-09T08:42:56.495Z,33.40
2024-03-09T08:45:25.481Z,26.15
2024-03-09T08:47:55.296Z,27.90
2024-03-09T08:50:26.641Z,23.55
2024-03-09T08:52:54.400Z,22.25
2024-03-09T08:55:23.264Z,28.77
2024-03-09T08:57:51.320Z,29.60
2024-03-09T09:00:26.484Z,39.58
2024-03-09T09:02:58.374Z,22.23
2024-03-09T09:05:29.107Z,32.95
2024-03-09T09:07:57.489Z,23.63
2024-03-09T09:10:26.811Z,27.60
2024-03-09T09:12:55.713Z,23.25
2024-03-09T09:15:26.116Z,26.88
2024-03-09T09:17:55.272Z,20.60
2024-03-09T09:20:22.582Z,23.42
2024-03-09T09:22:52.321Z,21.60
2024-03-09T09:25:28.296Z,20.52
2024-03-09T09:27:58.326Z,28.92
2024-03-09T09:30:27.665Z,23.20
2024-03-09T09:32:54.933Z,17.40
2024-03-09T09:35:22.452Z,19.83
2024-03-09T09:37:51.182Z,21.63
2024-03-09T09:40:21.604Z,20.00
2024-03-09T09:42:49.631Z,18.17
2024-03-09T09:45:23.222Z,22.42
2024-03-09T09:47:50.787Z,20.52
2024-03-09T09:50:21.087Z,22.65
2024-03-09T09:52:51.319Z,19.98
2024-03-09T09:55:21.115Z,17.20
2024-03-09T09:57:48.487Z,15.75
2024-03-09T10:00:16.412Z,15.73
2024-03-09T10:02:43.619Z,13.38
2024-03-09T10:05:14.589Z,17.75
2024-03-09T10:07:59.474Z,18.65
2024-03-09T10:10:32.430Z,22.13
2024-03-09T10:13:10.364Z,24.48
2024-03-09T10:15:39.632Z,21.63
2024-03-09T10:18:07.610Z,15.02
2024-03-09T10:20:36.634Z,14.90
2024-03-09T10:23:06.575Z,15.93
2024-03-09T10:25:37.375Z,17.30
2024-03-09T10:28:06.645Z,16.40
2024-03-09T10:30:34.475Z,17.27
2024-03-09T10:33:01.721Z,18.35
2024-03-09T10:35:28.944Z,14.88
2024-03-09T10:37:56.825Z,16.52
2024-03-09T10:40:27.020Z,16.90
2024-03-09T10:42:55.439Z,15.20
2024-03-09T10:45:26.572Z,17.88
2024-03-09T10:47:55.652Z,14.25
2024-03-09T10:50:25.451Z,21.42
2024-03-09T10:53:14.906Z,15.35
2024-03-09T10:55:54.916Z,13.23
2024-03-09T10:58:29.449Z,12.98
2024-03-09T11:00:57.940Z,14.10
2024-03-09T11:11:05.986Z,17.05
2024-03-09T11:13:33.681Z,13.82
2024-03-09T11:16:00.929Z,19.40
2024-03-09T11:18:28.371Z,13.88
2024-03-09T11:21:02.883Z,14.98
2024-03-09T11:23:32.569Z,16.00
2024-03-09T11:26:00.580Z,13.75
2024-03-09T11:28:53.245Z,14.05
2024-03-09T11:31:27.481Z,10.20
2024-03-09T11:33:59.531Z,12.15
2024-03-09T11:36:47.387Z,14.50
2024-03-09T11:39:15.495Z,14.27
2024-03-09T11:41:45.867Z,9.73
2024-03-09T11:44:17.782Z,13.32
2024-03-09T11:46:44.920Z,11.85
2024-03-09T11:49:12.093Z,9.90
2024-03-09T11:51:40.789Z,9.85
2024-03-09T11:54:10.999Z,16.00
2024-03-09T11:56:42.432Z,7.80
2024-03-09T11:59:12.319Z,8.57
2024-03-09T12:01:41.616Z,8.68
2024-03-09T12:04:09.832Z,11.30
2024-03-09T12:06:42.024Z,7.93
2024-03-09T12:09:11.902Z,8.98
2024-03-09T12:11:43.712Z,12.15
2024-03-09T12:14:11.180Z,13.23
2024-03-09T12:16:38.941Z,11.15
2024-03-09T12:19:08.212Z,28.05
2024-03-09T12:21:39.931Z,8.10
2024-03-09T12:24:08.397Z,8.18
2024-03-09T12:26:35.550Z,11.30
2024-03-09T12:29:04.922Z,7.38
2024-03-09T12:31:33.320Z,8.10
2024-03-09T12:34:00.693Z,15.45
2024-03-09T12:36:29.699Z,9.45
2024-03-09T12:39:10.665Z,10.98
2024-03-09T12:41:41.735Z,8.52
2024-03-09T12:44:11.729Z,8.85
2024-03-09T12:46:41.578Z,8.00
2024-03-09T12:49:13.293Z,11.65
2024-03-09T12:51:43.507Z,10.90
2024-03-09T12:54:11.762Z,7.85
2024-03-09T12:56:40.152Z,11.02
2024-03-09T12:59:12.850Z,9.65
2024-03-09T13:01:45.901Z,9.75
2024-03-09T13:04:13.513Z,12.63
2024-03-09T13:06:43.307Z,9.32
2024-03-09T13:09:19.914Z,7.13
2024-03-09T13:11:48.440Z,9.10
2024-03-09T13:14:21.912Z,9.02
2024-03-09T13:16:51.058Z,7.72
2024-03-09T13:19:18.655Z,7.28
2024-03-09T13:21:53.591Z,7.43
2024-03-09T13:24:24.684Z,13.50
2024-03-09T13:27:07.051Z,7.57
2024-03-09T13:29:34.199Z,6.28
2024-03-09T13:32:03.561Z,6.63
2024-03-09T13:34:32.386Z,6.50
2024-03-09T13:37:01.492Z,12.73
2024-03-09T13:39:35.901Z,5.82
2024-03-09T13:42:10.723Z,10.40
2024-03-09T13:44:38.674Z,7.75
2024-03-09T13:47:07.203Z,8.95
2024-03-09T13:49:34.741Z,7.07
2024-03-09T13:52:04.277Z,11.85
2024-03-09T13:54:31.468Z,20.55
2024-03-09T13:56:58.554Z,10.25
2024-03-09T13:59:25.905Z,6.15
2024-03-09T14:01:53.342Z,6.07
2024-03-09T14:04:24.994Z,7.18
2024-03-09T14:07:06.762Z,7.80
2024-03-09T14:09:50.118Z,7.25
2024-03-09T14:12:21.386Z,5.32
2024-03-09T14:14:53.785Z,6.57
2024-03-09T14:17:21.787Z,8.52
2024-03-09T14:19:49.104Z,4.80
2024-03-09T14:22:16.844Z,4.90
2024-03-09T14:24:48.515Z,6.15
2024-03-09T14:27:21.767Z,5.43
2024-03-09T14:29:49.777Z,8.68
2024-03-09T14:32:20.153Z,6.03
2024-03-09T14:34:47.491Z,4.43
2024-03-09T14:37:14.616Z,3.97
2024-03-09T14:39:44.459Z,7.43
2024-03-09T14:42:19.232Z,4.85
2024-03-09T14:44:46.837Z,5.57
2024-03-09T14:47:15.168Z,4.32
2024-03-09T14:49:43.422Z,6.38
2024-03-09T14:52:13.827Z,5.65
2024-03-09T14:54:41.206Z,5.45
2024-03-09T14:57:08.907Z,5.45
2024-03-09T14:59:37.781Z,6.60
2024-03-09T15:02:09.039Z,4.85
2024-03-09T15:04:36.296Z,4.10
2024-03-09T15:07:07.144Z,9.13
2024-03-09T15:09:34.440Z,7.22
2024-03-09T15:12:01.610Z,7.68
2024-03-09T15:14:28.967Z,6.40
2024-03-09T15:17:06.272Z,4.35
2024-03-09T15:19:33.624Z,4.60
2024-03-09T15:22:02.317Z,4.00
2024-03-09T15:24:29.576Z,3.33
2024-03-09T15:26:57.024Z,6.55
2024-03-09T15:29:25.253Z,5.88
2024-03-09T15:31:52.782Z,4.75
2024-03-09T15:34:21.297Z,4.30
2024-03-09T15:36:48.897Z,5.72
2024-03-09T15:39:16.065Z,5.10
2024-03-09T15:41:43.757Z,4.43
2024-03-09T15:44:10.870Z,5.70
2024-03-09T15:46:38.189Z,6.55
2024-03-09T15:49:07.311Z,5.82
2024-03-09T15:51:37.289Z,6.03
2024-03-09T15:54:05.239Z,4.95
2024-03-09T15:56:34.752Z,3.33
2024-03-09T15:59:05.963Z,3.80
2024-03-09T16:01:36.907Z,3.95
2024-03-09T16:04:11.427Z,5.22
2024-03-09T16:06:40.396Z,4.15
2024-03-09T16:09:13.582Z,5.32
2024-03-09T16:11:42.766Z,4.65
2024-03-09T16:14:13.798Z,3.70
2024-03-09T16:16:41.627Z,3.42
2024-03-09T16:19:08.991Z,11.77
2024-03-09T16:21:38.709Z,4.93
2024-03-09T16:24:08.995Z,4.88
2024-03-09T16:26:36.443Z,5.32
2024-03-09T16:29:06.242Z,3.38
2024-03-09T16:31:37.291Z,4.82
2024-03-09T16:34:08.013Z,4.65
2024-03-09T16:36:35.621Z,6.22
2024-03-09T16:39:04.635Z,4.45
2024-03-09T16:41:34.306Z,4.30
2024-03-09T16:44:05.016Z,3.92
2024-03-09T16:46:32.727Z,3.45
2024-03-09T16:49:00.015Z,3.95
2024-03-09T16:51:27.140Z,4.32
2024-03-09T16:53:54.920Z,3.50
2024-03-09T16:56:22.548Z,6.53
2024-03-09T16:58:51.299Z,4.10
2024-03-09T17:01:18.612Z,4.10
2024-03-09T17:03:47.996Z,6.65
2024-03-09T17:06:17.420Z,4.80
2024-03-09T17:08:45.716Z,5.35
2024-03-09T17:11:15.649Z,8.65
2024-03-09T17:13:48.517Z,4.43
2024-03-09T17:16:19.337Z,9.73
2024-03-09T17:18:49.430Z,3.80
2024-03-09T17:21:18.435Z,4.00
2024-03-09T17:23:47.071Z,4.20
2024-03-09T17:26:21.539Z,6.28
2024-03-09T17:28:52.661Z,5.53
2024-03-09T17:31:22.282Z,4.07
2024-03-09T17:33:50.006Z,3.53
2024-03-09T17:36:18.634Z,6.20
2024-03-09T17:38:49.146Z,5.07
2024-03-09T17:41:17.324Z,5.85
2024-03-09T17:43:44.660Z,4.30
2024-03-09T17:46:11.806Z,5.65
2024-03-09T17:48:42.420Z,10.50
2024-03-09T17:51:13.178Z,6.00
2024-03-09T17:53:40.413Z,8.65
2024-03-09T17:56:07.703Z,5.38
2024-03-09T17:58:34.980Z,5.88
2024-03-09T18:01:06.172Z,6.03
2024-03-09T18:03:33.569Z,6.95
2024-03-09T18:06:02.203Z,5.38
2024-03-09T18:08:34.975Z,7.35
2024-03-09T18:11:03.217Z,6.10
2024-03-09T18:13:31.232Z,5.10
2024-03-09T18:15:59.818Z,5.22
2024-03-09T18:18:27.021Z,5.63
2024-03-09T18:20:55.472Z,7.47
2024-03-09T18:23:24.328Z,7.75
2024-03-09T18:25:53.227Z,7.57
2024-03-09T18:28:20.501Z,9.10
2024-03-09T18:30:47.700Z,4.32
2024-03-09T18:33:16.480Z,6.35
2024-03-09T18:35:43.879Z,7.88
2024-03-09T18:38:15.508Z,6.55
2024-03-09T18:40:44.459Z,4.53
2024-03-09T18:43:11.694Z,8.77
2024-03-09T18:45:38.967Z,5.70
2024-03-09T18:48:07.428Z,6.75
2024-03-09T18:50:40.103Z,7.80
2024-03-09T18:53:07.212Z,6.10
2024-03-09T18:55:38.704Z,7.70
2024-03-09T18:58:09.734Z,5.10
2024-03-09T19:00:37.803Z,7.43
2024-03-09T19:03:08.090Z,4.72
2024-03-09T19:05:35.583Z,5.07
2024-03-09T19:08:05.494Z,5.35
2024-03-09T19:10:33.843Z,4.25
2024-03-09T19:13:05.514Z,4.15
2024-03-09T19:15:36.583Z,4.60
2024-03-09T19:18:04.985Z,4.70
2024-03-09T19:20:36.201Z,8.50
2024-03-09T19:23:04.509Z,6.07
2024-03-09T19:25:32.153Z,3.80
2024-03-09T19:28:00.097Z,3.47
2024-03-09T19:30:27.860Z,9.02
2024-03-09T19:32:56.823Z,4.85
2024-03-09T19:35:27.096Z,3.80
2024-03-09T19:37:59.311Z,4.95
2024-03-09T19:40:27.973Z,4.85
2024-03-09T19:42:56.286Z,2.80
2024-03-09T19:45:25.201Z,2.63
2024-03-09T19:47:53.428Z,4.40
2024-03-09T19:50:22.783Z,6.53
2024-03-09T19:52:50.638Z,5.43
2024-03-09T19:55:20.616Z,3.50
2024-03-09T19:57:48.987Z,4.10
2024-03-09T20:00:24.862Z,2.80
2024-03-09T20:02:53.836Z,5.35
2024-03-09T20:05:23.418Z,2.70
2024-03-09T20:07:57.208Z,7.03
2024-03-09T20:10:26.711Z,10.48
2024-03-09T20:12:57.631Z,3.40
2024-03-09T20:15:28.365Z,4.18
2024-03-09T20:17:56.584Z,4.05
2024-03-09T20:20:28.353Z,3.28
2024-03-09T20:22:56.264Z,4.72
2024-03-09T20:25:27.944Z,2.92
2024-03-09T20:27:56.568Z,6.75
2024-03-09T20:30:24.534Z,4.97
2024-03-09T20:32:52.226Z,3.55
2024-03-09T20:35:20.048Z,6.30
2024-03-09T20:37:49.509Z,1.98
2024-03-09T20:40:18.475Z,3.58
2024-03-09T20:42:49.491Z,4.18
2024-03-09T20:45:18.612Z,2.97
2024-03-09T20:47:46.514Z,1.98
2024-03-09T20:50:15.095Z,5.20
2024-03-09T20:52:43.744Z,3.60
2024-03-09T20:55:12.729Z,2.20
2024-03-09T20:57:39.917Z,2.97
2024-03-09T21:00:11.526Z,2.60
2024-03-09T21:02:40.820Z,2.65
2024-03-09T21:05:09.294Z,1.77
2024-03-09T21:07:36.622Z,2.95
2024-03-09T21:10:04.532Z,3.38
2024-03-09T21:12:33.284Z,2.50
2024-03-09T21:15:00.556Z,5.18
2024-03-09T21:17:28.356Z,3.60
2024-03-09T21:19:55.703Z,3.10
2024-03-09T21:22:23.000Z,2.17
2024-03-09T21:24:51.698Z,2.17
2024-03-09T21:27:18.833Z,4.65
2024-03-09T21:29:47.225Z,2.47
2024-03-09T21:32:14.308Z,2.13
2024-03-09T21:34:41.497Z,2.92
2024-03-09T21:37:10.823Z,2.95
2024-03-09T21:39:38.094Z,4.00
2024-03-09T21:42:07.293Z,1.58
2024-03-09T21:44:34.398Z,1.58
2024-03-09T21:47:03.041Z,9.57
2024-03-09T21:49:31.877Z,2.83
2024-03-09T21:51:59.785Z,1.92
2024-03-09T21:54:27.008Z,4.65
2024-03-09T21:56:54.091Z,6.53
2024-03-09T21:59:23.400Z,2.88
2024-03-09T22:01:50.496Z,2.33
2024-03-09T22:04:19.011Z,1.83
2024-03-09T22:06:46.142Z,1.63
2024-03-09T22:09:14.005Z,6.15
2024-03-09T22:11:41.165Z,3.40
2024-03-09T22:14:08.688Z,2.28
2024-03-09T22:16:35.772Z,1.55
2024-03-09T22:19:02.893Z,2.80
2024-03-09T22:21:31.547Z,0.82
2024-03-09T22:23:58.803Z,2.08
2024-03-09T22:26:28.496Z,4.38
2024-03-09T22:28:56.933Z,2.85
2024-03-09T22:31:26.470Z,5.07
2024-03-09T22:33:54.791Z,2.50
2024-03-09T22:36:22.227Z,5.60
2024-03-09T22:38:50.897Z,2.13
2024-03-09T22:41:18.407Z,7.40
2024-03-09T22:43:45.585Z,3.45
2024-03-09T22:46:12.688Z,1.10
2024-03-09T22:48:39.917Z,1.90
2024-03-09T22:51:07.764Z,2.33
2024-03-09T22:53:35.060Z,3.38
2024-03-09T22:56:04.491Z,2.63
2024-03-09T22:58:32.369Z,3.83
2024-03-09T23:01:22.336Z,4.93
2024-03-09T23:03:49.613Z,14.55
2024-03-09T23:06:17.211Z,3.20
2024-03-09T23:08:44.836Z,3.03
2024-03-09T23:11:14.268Z,2.30
2024-03-09T23:13:42.107Z,3.83
2024-03-09T23:16:09.438Z,5.40
2024-03-09T23:18:37.726Z,1.75
2024-03-09T23:21:05.234Z,2.88
2024-03-09T23:23:32.383Z,3.88
2024-03-09T23:25:59.518Z,3.75
2024-03-09T23:28:28.060Z,3.67
2024-03-09T23:30:55.217Z,3.20
2024-03-09T23:33:24.085Z,4.30
2024-03-09T23:35:51.320Z,4.30
2024-03-09T23:38:20.109Z,2.00
2024-03-09T23:40:47.348Z,2.80
2024-03-09T23:43:14.527Z,8.50
2024-03-09T23:45:42.926Z,2.17
2024-03-09T23:48:10.131Z,2.90
2024-03-09T23:50:37.489Z,3.08
2024-03-09T23:53:04.958Z,7.50
2024-03-09T23:55:32.703Z,1.77
2024-03-09T23:57:59.815Z,2.28
